createdAt,value
2022-11-02T00:02:46.921Z,100444.16
2022-11-02T00:07:48.331Z,100433.88
2022-11-02T00:12:49.917Z,100438.94
2022-11-02T00:17:54.012Z,100439.22
2022-11-02T00:22:59.307Z,100451.06
2022-11-02T00:28:00.666Z,100450.84
2022-11-02T00:33:02.316Z,100453.94
2022-11-02T00:38:04.435Z,100453.78
2022-11-02T00:43:06.184Z,100460.13
2022-11-02T00:48:07.776Z,100473.72
2022-11-02T00:53:09.295Z,100463.69
2022-11-02T00:58:10.656Z,100461.97
2022-11-02T01:03:12.015Z,100463.41
2022-11-02T01:08:13.380Z,100460.69
2022-11-02T01:13:14.798Z,100452.50
2022-11-02T01:18:16.247Z,100461.56
2022-11-02T01:23:17.626Z,100452.94
2022-11-02T01:28:19.054Z,100446.91
2022-11-02T01:33:20.415Z,100447.28
2022-11-02T01:38:21.773Z,100445.91
2022-11-02T01:43:29.798Z,100446.28
2022-11-02T01:48:33.443Z,100441.16
2022-11-02T01:53:35.216Z,100448.34
2022-11-02T01:58:36.604Z,100443.47
2022-11-02T02:03:37.964Z,100446.84
2022-11-02T02:08:41.623Z,100445.44
2022-11-02T02:13:42.986Z,100449.66
2022-11-02T02:18:55.601Z,100438.94
2022-11-02T02:24:26.464Z,100446.44
2022-11-02T02:29:45.891Z,100436.81
2022-11-02T02:34:54.014Z,100439.00
2022-11-02T02:40:00.964Z,100441.69
2022-11-02T02:45:39.671Z,100443.78
2022-11-02T02:50:45.004Z,100451.66
2022-11-02T02:55:46.778Z,100445.16
2022-11-02T03:00:48.258Z,100443.31
2022-11-02T03:06:11.059Z,100450.84
2022-11-02T03:11:14.072Z,100452.50
2022-11-02T03:16:32.443Z,100447.88
2022-11-02T03:21:33.635Z,100446.91
2022-11-02T03:27:05.209Z,100441.84
2022-11-02T03:32:19.201Z,100442.88
2022-11-02T03:37:23.536Z,100454.91
2022-11-02T03:42:26.510Z,100451.50
2022-11-02T03:47:30.932Z,100465.59
2022-11-02T03:52:34.819Z,100463.53
2022-11-02T03:57:42.879Z,100472.03
2022-11-02T04:02:46.164Z,100470.38
2022-11-02T04:08:08.331Z,100455.22
2022-11-02T04:13:28.603Z,100471.44
2022-11-02T04:18:48.235Z,100470.19
2022-11-02T04:24:08.050Z,100462.22
2022-11-02T04:29:09.618Z,100463.41
2022-11-02T04:34:10.979Z,100453.59
2022-11-02T04:39:12.334Z,100455.50
2022-11-02T04:44:14.399Z,100445.22
2022-11-02T04:49:17.102Z,100450.22
2022-11-02T04:54:18.486Z,100453.19
2022-11-02T04:59:19.847Z,100465.38
2022-11-02T05:04:21.431Z,100454.03
2022-11-02T05:09:22.794Z,100445.22
2022-11-02T05:14:24.202Z,100449.66
2022-11-02T05:19:25.593Z,100453.19
2022-11-02T05:24:26.958Z,100449.22
2022-11-02T05:29:28.314Z,100465.97
2022-11-02T05:34:29.675Z,100460.53
2022-11-02T05:39:31.261Z,100465.53
2022-11-02T05:44:32.658Z,100452.06
2022-11-02T05:49:34.436Z,100452.94
2022-11-02T05:54:35.795Z,100447.69
2022-11-02T05:59:37.157Z,100455.69
2022-11-02T06:04:38.520Z,100459.50
2022-11-02T06:09:39.884Z,100460.47
2022-11-02T06:14:41.252Z,100465.53
2022-11-02T06:19:42.619Z,100470.09
2022-11-02T06:24:43.974Z,100473.88
2022-11-02T06:29:45.335Z,100486.41
2022-11-02T06:34:46.695Z,100491.34
2022-11-02T06:39:48.130Z,100488.59
2022-11-02T06:44:49.505Z,100485.56
2022-11-02T06:49:51.852Z,100479.88
2022-11-02T06:59:54.448Z,100502.47
2022-11-02T07:04:55.991Z,100487.28
2022-11-02T07:09:57.355Z,100499.81
2022-11-02T07:14:58.725Z,100497.31
2022-11-02T07:20:00.105Z,100497.19
2022-11-02T07:25:01.468Z,100492.75
2022-11-02T07:30:03.251Z,100509.97
2022-11-02T07:35:04.939Z,100500.28
2022-11-02T07:40:07.216Z,100491.41
2022-11-02T07:45:08.835Z,100481.50
2022-11-02T07:50:12.527Z,100480.50
2022-11-02T07:55:18.536Z,100478.47
2022-11-02T08:00:19.948Z,100470.97
2022-11-02T08:05:21.317Z,100468.09
2022-11-02T08:10:22.674Z,100465.56
2022-11-02T08:15:24.494Z,100467.69
2022-11-02T08:20:25.906Z,100485.00
2022-11-02T08:25:27.288Z,100500.72
2022-11-02T08:30:29.143Z,100503.72
2022-11-02T08:35:30.507Z,100509.38
2022-11-02T08:40:32.010Z,100499.03
2022-11-02T08:46:00.516Z,100466.41
2022-11-02T08:50:56.097Z,100462.94
2022-11-02T08:55:58.527Z,100468.22
2022-11-02T09:00:59.896Z,100472.19
2022-11-02T09:06:02.083Z,100479.53
2022-11-02T09:11:04.131Z,100474.06
2022-11-02T09:16:05.804Z,100465.50
2022-11-02T09:21:07.210Z,100479.53
2022-11-02T09:26:08.602Z,100480.59
2022-11-02T09:31:11.624Z,100488.13
2022-11-02T09:36:13.367Z,100505.41
2022-11-02T09:41:23.640Z,100524.72
2022-11-02T09:46:27.089Z,100530.91
2022-11-02T09:51:40.119Z,100537.41
2022-11-02T09:56:41.670Z,100548.34
2022-11-02T10:02:12.744Z,100548.56
2022-11-02T10:07:21.686Z,100537.41
2022-11-02T10:12:37.316Z,100549.25
2022-11-02T10:17:39.063Z,100555.56
2022-11-02T10:22:41.022Z,100548.06
2022-11-02T10:27:43.734Z,100545.13
2022-11-02T10:32:46.061Z,100535.38
2022-11-02T10:38:11.959Z,100537.44
2022-11-02T10:43:28.632Z,100532.09
2022-11-02T10:49:01.121Z,100521.75
2022-11-02T10:54:02.711Z,100534.44
2022-11-02T10:59:24.344Z,100522.69
2022-11-02T11:04:27.028Z,100519.97
2022-11-02T11:09:30.536Z,100524.81
2022-11-02T11:20:33.668Z,100531.50
2022-11-02T11:25:35.077Z,100531.50
2022-11-02T11:30:58.935Z,100525.19
2022-11-02T11:35:58.795Z,100537.22
2022-11-02T11:41:00.220Z,100547.06
2022-11-02T11:46:06.374Z,100557.59
2022-11-02T11:51:31.255Z,100554.50
2022-11-02T11:56:32.904Z,100541.66
2022-11-02T12:01:40.889Z,100541.44
2022-11-02T12:06:50.857Z,100541.38
2022-11-02T12:12:11.086Z,100542.28
2022-11-02T12:17:15.299Z,100549.81
2022-11-02T12:22:38.169Z,100541.09
2022-11-02T12:28:19.242Z,100537.88
2022-11-02T12:33:34.733Z,100536.22
2022-11-02T12:38:59.879Z,100536.59
2022-11-02T12:44:09.256Z,100527.78
2022-11-02T12:49:22.641Z,100536.13
2022-11-02T12:54:27.263Z,100535.88
2022-11-02T12:59:30.499Z,100555.84
2022-11-02T13:04:36.982Z,100554.09
2022-11-02T13:09:51.753Z,100540.44
2022-11-02T13:14:54.553Z,100550.00
2022-11-02T13:19:57.947Z,100554.41
2022-11-02T13:25:26.604Z,100531.47
2022-11-02T13:30:28.558Z,100538.16
2022-11-02T13:35:33.062Z,100548.19
2022-11-02T13:41:03.844Z,100540.44
2022-11-02T13:46:23.531Z,100545.00
2022-11-02T13:51:32.506Z,100546.22
2022-11-02T13:56:35.259Z,100537.19
2022-11-02T14:01:39.096Z,100534.53
2022-11-02T14:06:51.451Z,100541.88
2022-11-02T14:11:52.816Z,100548.81
2022-11-02T14:16:54.059Z,100534.41
2022-11-02T14:21:58.681Z,100556.09
2022-11-02T14:27:01.051Z,100545.06
2022-11-02T14:32:10.735Z,100540.97
2022-11-02T14:37:44.347Z,100539.16
2022-11-02T14:43:24.158Z,100526.34
2022-11-02T14:48:25.522Z,100524.81
2022-11-02T14:53:27.698Z,100527.84
2022-11-02T14:58:39.995Z,100524.13
2022-11-02T15:03:41.855Z,100531.94
2022-11-02T15:08:43.055Z,100546.03
2022-11-02T15:13:48.029Z,100541.56
2022-11-02T15:18:49.395Z,100535.31
2022-11-02T15:23:52.871Z,100536.59
2022-11-02T15:28:55.611Z,100543.75
2022-11-02T15:33:58.792Z,100558.69
2022-11-02T15:39:04.951Z,100562.59
2022-11-02T15:44:13.343Z,100568.50
2022-11-02T15:49:27.380Z,100576.16
2022-11-02T15:54:53.559Z,100579.56
2022-11-02T16:00:04.070Z,100584.56
2022-11-02T16:05:08.220Z,100595.47
2022-11-02T16:10:21.064Z,100596.53
2022-11-02T16:15:22.567Z,100603.28
2022-11-02T16:20:28.342Z,100606.84
2022-11-02T16:25:51.878Z,100605.75
2022-11-02T16:31:17.920Z,100614.44
2022-11-02T16:36:24.391Z,100613.78
2022-11-02T16:41:29.914Z,100610.84
2022-11-02T16:46:40.966Z,100619.03
2022-11-02T16:51:56.634Z,100632.88
2022-11-02T16:57:07.134Z,100630.56
2022-11-02T17:02:12.130Z,100658.88
2022-11-02T17:07:20.800Z,100661.84
2022-11-02T17:12:33.692Z,100671.06
2022-11-02T17:17:37.311Z,100678.41
2022-11-02T17:22:48.101Z,100671.25
2022-11-02T17:27:50.416Z,100665.16
2022-11-02T17:32:51.786Z,100659.72
2022-11-02T17:37:55.719Z,100658.28
2022-11-02T17:42:59.644Z,100660.81
2022-11-02T17:48:01.496Z,100666.69
2022-11-02T17:53:02.907Z,100665.00
2022-11-02T17:58:05.715Z,100666.47
2022-11-02T18:03:13.620Z,100667.34
2022-11-02T18:08:14.984Z,100673.41
2022-11-02T18:13:20.318Z,100668.19
2022-11-02T18:18:21.723Z,100665.88
2022-11-02T18:23:23.087Z,100664.16
2022-11-02T18:28:24.447Z,100655.16
2022-11-02T18:33:25.804Z,100657.88
2022-11-02T18:38:27.203Z,100656.84
2022-11-02T18:43:28.569Z,100652.66
2022-11-02T18:48:29.932Z,100665.25
2022-11-02T18:53:31.299Z,100663.97
2022-11-02T18:58:32.671Z,100662.72
2022-11-02T19:03:34.386Z,100660.84
2022-11-02T19:08:54.120Z,100665.03
2022-11-02T19:13:55.480Z,100667.75
2022-11-02T19:18:56.843Z,100657.22
2022-11-02T19:23:58.199Z,100668.59
2022-11-02T19:29:03.061Z,100659.56
2022-11-02T19:34:07.571Z,100659.16
2022-11-02T19:39:09.023Z,100647.59
2022-11-02T19:44:10.409Z,100650.78
2022-11-02T19:49:11.769Z,100654.53
2022-11-02T19:54:13.146Z,100664.84
2022-11-02T19:59:14.508Z,100664.41
2022-11-02T20:04:15.877Z,100670.91
2022-11-02T20:09:18.536Z,100667.56
2022-11-02T20:14:19.971Z,100667.13
2022-11-02T20:19:21.332Z,100669.47
2022-11-02T20:24:22.812Z,100666.97
2022-11-02T20:29:24.170Z,100674.94
2022-11-02T20:34:25.526Z,100674.28
2022-11-02T20:39:26.892Z,100694.41
2022-11-02T20:44:28.251Z,100685.78
2022-11-02T20:49:49.516Z,100702.59
2022-11-02T20:54:50.968Z,100706.16
2022-11-02T20:59:52.331Z,100696.31
2022-11-02T21:04:53.695Z,100708.06
2022-11-02T21:09:55.099Z,100712.06
2022-11-02T21:14:56.697Z,100708.91
2022-11-02T21:20:14.127Z,100702.63
2022-11-02T21:25:19.539Z,100707.66
2022-11-02T21:30:20.904Z,100708.94
2022-11-02T21:35:22.278Z,100711.41
2022-11-02T21:45:26.366Z,100712.91
2022-11-02T21:50:27.873Z,100716.94
2022-11-02T21:55:29.231Z,100719.81
2022-11-02T22:00:50.603Z,100717.50
2022-11-02T22:05:59.198Z,100715.44
2022-11-02T22:11:00.565Z,100709.34
2022-11-02T22:16:14.836Z,100711.81
2022-11-02T22:21:17.004Z,100696.41
2022-11-02T22:26:22.308Z,100701.31
2022-11-02T22:31:25.372Z,100694.63
2022-11-02T22:36:28.006Z,100699.06
2022-11-02T22:41:39.667Z,100697.75
2022-11-02T22:46:42.783Z,100695.03
2022-11-02T22:51:48.418Z,100691.69
2022-11-02T22:56:49.795Z,100696.72
2022-11-02T23:01:51.441Z,100694.25
2022-11-02T23:06:52.935Z,100703.66
2022-11-02T23:11:54.316Z,100705.34
2022-11-02T23:16:55.782Z,100710.78
2022-11-02T23:22:26.284Z,100707.22
2022-11-02T23:27:27.826Z,100711.41
2022-11-02T23:32:29.251Z,100711.41
2022-11-02T23:37:30.618Z,100707.44
2022-11-02T23:42:32.046Z,100703.66
2022-11-02T23:47:51.817Z,100706.97
2022-11-02T23:53:11.381Z,100690.66
2022-11-02T23:58:12.742Z,100678.88
